createdAt,value
2022-11-14T00:07:41.525Z,27.70
2022-11-14T00:26:22.294Z,28.50
2022-11-14T00:45:07.624Z,37.20
2022-11-14T01:03:41.868Z,31.50
2022-11-14T01:22:22.036Z,32.30
2022-11-14T01:41:01.103Z,31.30
2022-11-14T01:59:40.704Z,23.10
2022-11-14T02:18:20.674Z,29.30
2022-11-14T02:37:00.991Z,31.50
2022-11-14T02:55:41.006Z,41.80
2022-11-14T03:14:21.971Z,38.70
2022-11-14T03:33:02.682Z,45.00
2022-11-14T03:51:41.614Z,31.40
2022-11-14T04:10:21.452Z,37.20
2022-11-14T04:29:04.321Z,40.10
2022-11-14T04:47:43.312Z,49.60
2022-11-14T05:06:25.029Z,36.30
2022-11-14T05:25:10.091Z,35.10
2022-11-14T05:43:46.823Z,31.20
2022-11-14T06:02:27.108Z,73.00
2022-11-14T06:21:08.888Z,29.00
2022-11-14T06:39:49.349Z,27.90
2022-11-14T06:58:34.419Z,23.20
2022-11-14T07:17:11.123Z,36.40
2022-11-14T07:35:53.040Z,42.00
2022-11-14T07:54:33.767Z,27.90
2022-11-14T08:13:35.620Z,23.30
2022-11-14T08:32:02.159Z,22.30
2022-11-14T08:50:38.479Z,11.30
2022-11-14T09:09:21.621Z,33.90
2022-11-14T09:28:05.362Z,21.30
2022-11-14T09:46:44.999Z,23.30
2022-11-14T10:05:31.760Z,25.30
2022-11-14T10:24:12.704Z,14.40
2022-11-14T10:42:55.090Z,12.20
2022-11-14T11:01:42.187Z,11.20
2022-11-14T11:20:41.786Z,8.50
2022-11-14T11:58:02.509Z,5.40
2022-11-14T12:16:48.808Z,6.50
2022-11-14T12:54:02.881Z,7.70
2022-11-14T13:12:28.221Z,5.00
2022-11-14T13:49:41.079Z,7.20
2022-11-14T14:08:20.948Z,4.90
2022-11-14T14:26:54.686Z,4.50
2022-11-14T14:45:31.180Z,4.10
2022-11-14T15:04:09.384Z,10.00
2022-11-14T15:22:45.443Z,6.80
2022-11-14T16:18:42.650Z,8.80
2022-11-14T16:37:19.618Z,9.10
2022-11-14T16:55:59.338Z,8.10
2022-11-14T17:14:38.908Z,8.80
2022-11-14T17:33:17.874Z,14.60
2022-11-14T17:51:57.631Z,13.60
2022-11-14T18:10:36.668Z,15.90
2022-11-14T18:29:17.201Z,19.50
2022-11-14T18:47:57.488Z,23.80
2022-11-14T19:06:38.155Z,18.00
2022-11-14T19:43:57.967Z,23.60
2022-11-14T20:21:16.306Z,20.40
2022-11-14T20:58:36.063Z,17.70
2022-11-14T21:17:15.849Z,13.10
2022-11-14T21:35:57.024Z,15.70
2022-11-14T21:54:34.961Z,21.40
2022-11-14T22:13:15.473Z,14.10
2022-11-14T22:31:55.853Z,12.20
2022-11-14T22:50:36.107Z,24.70
2022-11-14T23:09:19.974Z,14.50
2022-11-14T23:27:54.893Z,15.80
2022-11-14T23:46:36.241Z,26.80
